Airport View

Enter AWOS ICAO identifier for current METAR.

ex. KFNL

KJYR 210015Z AUTO 15012G19KT 10SM OVC022 23/20 A2987 RMK AO2

21 Sep 2019 00:25

Frequency: 124.175

Phone: 402-362-3785

Other Area AWOS: KAUH - KGRI - KOLU - KLNK

TAF KGRI 202332Z 2100/2124 16014G21KT P6SM SCT050 FM210400 16014G19KT P6SM BKN025 FM210600 17015KT P6SM BKN015 WS010/19045KT FM210900 19013KT P6SM SCT020 WS010/19045KT FM211200 22012KT P6SM SCT200 FM211600 30009G14KT P6SM SKC